SHT5P EGAC-EGLL
Flight info
| Callsign | SHT5P |
|---|---|
| Flight time | N/A |
| Altitude | 33000 |
| Route | DUFFY L10 RINGA Q39 BABGU DCT ETIGA DCT INKOB Q39 NOMSU UQ4 WAL UY53 NUGRA |
| Aircraft | A319/M-SDE3FGHIRWY/LB1 |
Departure
| Time | 2026-05-01 12:20 |
|---|---|
| Airport | George Best Belfast City Airport (EGAC) |
Arrival
| Time | N/A |
|---|---|
| Airport | London Heathrow Airport (EGLL) |
| Time | Latitude | Longitude | Altitude | Speed | Heading |
|---|---|---|---|---|---|
| 2026-05-01 12:03 | 54.61457 | -5.87188 | 22 ft | 0 kts | 156° |
| 2026-05-01 12:13 | 54.61468 | -5.87198 | 23 ft | 2 kts | 135° |
| 2026-05-01 12:13 | 54.61477 | -5.87218 | 23 ft | 2 kts | 116° |
| 2026-05-01 12:13 | 54.61482 | -5.87243 | 22 ft | 2 kts | 95° |
| 2026-05-01 12:13 | 54.61481 | -5.87266 | 22 ft | 0 kts | 79° |
| 2026-05-01 12:14 | 54.61481 | -5.87269 | 23 ft | 0 kts | 80° |
| 2026-05-01 12:15 | 54.61482 | -5.87265 | 22 ft | 0 kts | 77° |
| 2026-05-01 12:15 | 54.61486 | -5.87242 | 23 ft | 1 kts | 62° |
| 2026-05-01 12:16 | 54.61501 | -5.87212 | 23 ft | 6 kts | 39° |
| 2026-05-01 12:16 | 54.61560 | -5.87188 | 22 ft | 10 kts | 28° |
| 2026-05-01 12:16 | 54.61625 | -5.87113 | 22 ft | 12 kts | 35° |
| 2026-05-01 12:16 | 54.61698 | -5.87019 | 22 ft | 13 kts | 38° |
| 2026-05-01 12:17 | 54.61780 | -5.87031 | 22 ft | 14 kts | 302° |
| 2026-05-01 12:17 | 54.61851 | -5.87161 | 22 ft | 15 kts | 350° |
| 2026-05-01 12:17 | 54.61953 | -5.87082 | 22 ft | 17 kts | 34° |
| 2026-05-01 12:17 | 54.62081 | -5.86925 | 22 ft | 26 kts | 35° |
| 2026-05-01 12:18 | 54.62229 | -5.86746 | 21 ft | 25 kts | 35° |
| 2026-05-01 12:18 | 54.62358 | -5.86591 | 21 ft | 18 kts | 34° |
| 2026-05-01 12:18 | 54.62421 | -5.86473 | 21 ft | 10 kts | 62° |
| 2026-05-01 12:18 | 54.62467 | -5.86445 | 21 ft | 4 kts | 310° |
| 2026-05-01 12:19 | 54.62443 | -5.86494 | 21 ft | 7 kts | 210° |
| 2026-05-01 12:19 | 54.62400 | -5.86544 | 21 ft | 8 kts | 214° |
| 2026-05-01 12:19 | 54.62258 | -5.86714 | 21 ft | 42 kts | 214° |
| 2026-05-01 12:19 | 54.61806 | -5.87243 | 23 ft | 114 kts | 214° |
| 2026-05-01 12:20 | 54.60974 | -5.88244 | 175 ft | 160 kts | 211° |
| 2026-05-01 12:20 | 54.60063 | -5.89269 | 893 ft | 158 kts | 211° |
| 2026-05-01 12:20 | 54.59169 | -5.90272 | 1682 ft | 156 kts | 209° |
| 2026-05-01 12:20 | 54.58144 | -5.90811 | 2301 ft | 163 kts | 174° |
| 2026-05-01 12:21 | 54.57115 | -5.89935 | 2850 ft | 178 kts | 136° |
| 2026-05-01 12:21 | 54.56262 | -5.88331 | 3412 ft | 191 kts | 144° |
| 2026-05-01 12:21 | 54.55003 | -5.87413 | 3935 ft | 207 kts | 166° |
| 2026-05-01 12:21 | 54.53552 | -5.86827 | 4522 ft | 226 kts | 167° |
| 2026-05-01 12:22 | 54.51993 | -5.86024 | 5144 ft | 246 kts | 153° |
| 2026-05-01 12:22 | 54.50684 | -5.84082 | 5994 ft | 258 kts | 130° |
| 2026-05-01 12:22 | 54.49658 | -5.81552 | 7033 ft | 260 kts | 128° |
| 2026-05-01 12:22 | 54.48633 | -5.78998 | 8001 ft | 264 kts | 129° |
| 2026-05-01 12:23 | 54.47603 | -5.76433 | 8917 ft | 267 kts | 129° |
| 2026-05-01 12:23 | 54.46539 | -5.73780 | 9817 ft | 270 kts | 129° |
| 2026-05-01 12:23 | 54.45485 | -5.71157 | 10624 ft | 275 kts | 129° |
| 2026-05-01 12:23 | 54.44365 | -5.68386 | 11112 ft | 291 kts | 129° |
| 2026-05-01 12:24 | 54.43170 | -5.65434 | 11521 ft | 309 kts | 129° |
| 2026-05-01 12:24 | 54.41935 | -5.62373 | 12115 ft | 319 kts | 128° |
| 2026-05-01 12:24 | 54.40671 | -5.59234 | 12887 ft | 322 kts | 128° |
| 2026-05-01 12:24 | 54.39412 | -5.56109 | 13645 ft | 324 kts | 128° |
| 2026-05-01 12:25 | 54.38120 | -5.52918 | 14322 ft | 330 kts | 128° |
| 2026-05-01 12:25 | 54.35475 | -5.46390 | 15705 ft | 337 kts | 128° |
| 2026-05-01 12:25 | 54.34135 | -5.43088 | 16373 ft | 341 kts | 128° |